Time;durP1;ratioP1;P1;durP2;ratioP2;P2;SDS_P1;SDS_P2;PMS_P1;PMS_P2;Temp;Humidity;BMP_temperature;BMP_pressure;BME280_temperature;BME280_humidity;BME280_pressure;Samples;Min_cycle;Max_cycle;Signal;HPM_P1;HPM_P2
2022/07/26 00:00:15;;;;;;;0.10;0.10;;;;;;;;;;5059990;28;20438;-75
2022/07/26 00:02:40;;;;;;;0.35;0.35;;;;;;;;;;5056155;28;20021;-75
2022/07/26 00:05:06;;;;;;;0.20;0.20;;;;;;;;;;5058565;28;20104;-75
2022/07/26 00:07:36;;;;;;;0.52;0.25;;;;;;;;;;5057316;28;20033;-74
2022/07/26 00:10:03;;;;;;;3.90;1.15;;;;;;;;;;5058886;28;20029;-75
2022/07/26 00:12:29;;;;;;;1.67;0.52;;;;;;;;;;5059611;28;20029;-76
2022/07/26 00:14:54;;;;;;;0.65;0.20;;;;;;;;;;5060253;28;20017;-76
2022/07/26 00:17:19;;;;;;;0.20;0.20;;;;;;;;;;5059276;28;20032;-76
2022/07/26 00:19:45;;;;;;;0.68;0.50;;;;;;;;;;5060561;28;20414;-76
2022/07/26 00:24:56;;;;;;;3.08;0.85;;;;;;;;;;5059968;28;20362;-74
2022/07/26 00:27:22;;;;;;;0.10;0.10;;;;;;;;;;5058402;28;20020;-76
2022/07/26 00:29:47;;;;;;;0.13;0.10;;;;;;;;;;5058588;28;20035;-73
2022/07/26 00:32:12;;;;;;;0.43;0.20;;;;;;;;;;5058581;28;20113;-74
2022/07/26 00:34:38;;;;;;;1.40;0.28;;;;;;;;;;5058063;28;20476;-73
2022/07/26 00:37:03;;;;;;;4.70;0.17;;;;;;;;;;5058946;28;20359;-72
2022/07/26 00:39:28;;;;;;;0.85;0.75;;;;;;;;;;5058979;28;20426;-72
2022/07/26 00:41:56;;;;;;;0.55;0.35;;;;;;;;;;5059334;28;20068;-73
2022/07/26 00:44:21;;;;;;;0.40;0.38;;;;;;;;;;5059496;28;20033;-73
2022/07/26 00:46:50;;;;;;;0.47;0.43;;;;;;;;;;5039729;28;20178;-73
2022/07/26 00:49:15;;;;;;;0.40;0.20;;;;;;;;;;5056425;28;20025;-73
2022/07/26 00:51:43;;;;;;;0.63;0.40;;;;;;;;;;5055361;28;20035;-73
2022/07/26 00:54:08;;;;;;;1.85;0.20;;;;;;;;;;5055020;28;20029;-73
2022/07/26 00:56:36;;;;;;;1.05;0.52;;;;;;;;;;5056065;28;20039;-73
2022/07/26 00:59:02;;;;;;;0.20;0.10;;;;;;;;;;5040088;28;20028;-73
2022/07/26 01:01:29;;;;;;;4.13;0.45;;;;;;;;;;5055084;28;20024;-73
2022/07/26 01:03:58;;;;;;;0.52;0.50;;;;;;;;;;5053488;28;20022;-73
2022/07/26 01:06:25;;;;;;;0.45;0.20;;;;;;;;;;5055797;28;20377;-71
2022/07/26 01:08:51;;;;;;;0.10;0.10;;;;;;;;;;5055943;28;20029;-73
2022/07/26 01:11:16;;;;;;;4.13;1.25;;;;;;;;;;5055802;28;20039;-73
2022/07/26 01:13:48;;;;;;;0.20;0.20;;;;;;;;;;5055785;28;20116;-72
2022/07/26 01:16:14;;;;;;;2.05;0.40;;;;;;;;;;5055594;28;20029;-72
2022/07/26 01:18:40;;;;;;;0.20;0.20;;;;;;;;;;5055892;28;20087;-73
2022/07/26 01:21:08;;;;;;;0.30;0.30;;;;;;;;;;5052619;28;20021;-72
2022/07/26 01:23:33;;;;;;;0.90;0.50;;;;;;;;;;5054174;28;20025;-72
2022/07/26 01:26:02;;;;;;;2.10;0.55;;;;;;;;;;5054096;28;20354;-73
2022/07/26 01:28:28;;;;;;;0.98;0.38;;;;;;;;;;5056412;28;20078;-73
2022/07/26 01:30:55;;;;;;;1.80;0.70;;;;;;;;;;5060559;28;20032;-73
2022/07/26 01:33:21;;;;;;;1.00;0.50;;;;;;;;;;5055438;28;20021;-73
2022/07/26 01:35:51;;;;;;;0.52;0.47;;;;;;;;;;5055127;28;20089;-73
2022/07/26 01:38:19;;;;;;;0.38;0.38;;;;;;;;;;5055441;28;20025;-73
2022/07/26 01:40:44;;;;;;;1.40;0.40;;;;;;;;;;5055309;28;20174;-73
2022/07/26 01:43:09;;;;;;;1.17;0.50;;;;;;;;;;5052201;28;20112;-72
2022/07/26 01:45:35;;;;;;;3.25;1.45;;;;;;;;;;5038317;28;20029;-72
2022/07/26 01:48:02;;;;;;;0.60;0.55;;;;;;;;;;5054000;28;20040;-73
2022/07/26 01:50:31;;;;;;;0.25;0.22;;;;;;;;;;5055225;28;20020;-72
2022/07/26 01:52:59;;;;;;;0.60;0.57;;;;;;;;;;5054404;28;20028;-73
2022/07/26 01:55:24;;;;;;;0.10;0.10;;;;;;;;;;5055089;28;20025;-73
2022/07/26 01:57:49;;;;;;;0.38;0.38;;;;;;;;;;5054852;28;20156;-72
2022/07/26 02:00:15;;;;;;;0.52;0.32;;;;;;;;;;5058879;28;20025;-73
2022/07/26 02:02:40;;;;;;;0.85;0.50;;;;;;;;;;5052916;28;20020;-72
2022/07/26 02:05:09;;;;;;;0.75;0.50;;;;;;;;;;5052031;28;20037;-73
2022/07/26 02:07:39;;;;;;;0.43;0.25;;;;;;;;;;5054727;28;20025;-73
2022/07/26 02:10:05;;;;;;;0.25;0.25;;;;;;;;;;5051120;28;20607;-73
2022/07/26 02:12:35;;;;;;;6.45;0.43;;;;;;;;;;5053665;28;20468;-74
2022/07/26 02:15:02;;;;;;;10.45;0.50;;;;;;;;;;5048313;28;20028;-73
2022/07/26 02:17:30;;;;;;;8.98;1.27;;;;;;;;;;5054771;28;20047;-73
2022/07/26 02:19:58;;;;;;;3.60;1.23;;;;;;;;;;5051042;28;20577;-72
2022/07/26 02:22:25;;;;;;;3.58;0.40;;;;;;;;;;5048007;28;20430;-74
2022/07/26 02:24:51;;;;;;;1.20;1.08;;;;;;;;;;5050626;28;20048;-73
2022/07/26 02:27:16;;;;;;;1.52;0.43;;;;;;;;;;5048743;28;20025;-73
2022/07/26 02:29:45;;;;;;;0.88;0.60;;;;;;;;;;5038683;28;20029;-73
2022/07/26 02:32:15;;;;;;;0.57;0.52;;;;;;;;;;5055354;28;20036;-73
2022/07/26 02:34:40;;;;;;;1.30;0.60;;;;;;;;;;5049257;28;20025;-73
2022/07/26 02:37:09;;;;;;;0.35;0.35;;;;;;;;;;5053948;28;20032;-73
2022/07/26 02:39:34;;;;;;;1.35;0.73;;;;;;;;;;5053210;28;20052;-72
2022/07/26 02:42:01;;;;;;;0.73;0.55;;;;;;;;;;5053135;28;20520;-73
2022/07/26 02:44:30;;;;;;;0.60;0.28;;;;;;;;;;5054628;28;20052;-73
2022/07/26 02:46:57;;;;;;;1.27;0.57;;;;;;;;;;5053285;28;20083;-73
2022/07/26 02:49:23;;;;;;;7.72;1.75;;;;;;;;;;5048595;28;20024;-72
2022/07/26 02:51:48;;;;;;;0.98;0.50;;;;;;;;;;5053217;28;20606;-72
2022/07/26 02:54:19;;;;;;;0.20;0.20;;;;;;;;;;5054213;28;20035;-73
2022/07/26 02:56:46;;;;;;;4.43;0.88;;;;;;;;;;5046759;28;20035;-72
2022/07/26 02:59:12;;;;;;;0.63;0.63;;;;;;;;;;5051840;28;20405;-72
2022/07/26 03:01:39;;;;;;;0.10;0.10;;;;;;;;;;5053660;28;20124;-72
2022/07/26 03:04:06;;;;;;;0.47;0.47;;;;;;;;;;5052371;28;20029;-72
2022/07/26 03:06:31;;;;;;;0.50;0.50;;;;;;;;;;5053075;28;20025;-72
2022/07/26 03:08:57;;;;;;;1.52;0.60;;;;;;;;;;5053203;28;20041;-72
2022/07/26 03:11:24;;;;;;;0.38;0.25;;;;;;;;;;5052620;28;20025;-73
2022/07/26 03:13:54;;;;;;;0.55;0.52;;;;;;;;;;5052315;28;20052;-72
2022/07/26 03:16:22;;;;;;;2.03;0.40;;;;;;;;;;5052532;28;20029;-72
2022/07/26 03:18:47;;;;;;;0.30;0.30;;;;;;;;;;5053819;28;20478;-72
2022/07/26 03:21:15;;;;;;;1.48;0.63;;;;;;;;;;5053171;28;20035;-72
2022/07/26 03:23:40;;;;;;;0.40;0.40;;;;;;;;;;5053005;28;20033;-72
2022/07/26 03:26:05;;;;;;;3.00;1.08;;;;;;;;;;5052822;28;20457;-73
2022/07/26 03:28:38;;;;;;;0.65;0.38;;;;;;;;;;5059264;28;20029;-73
2022/07/26 03:31:03;;;;;;;;;;;;;;;;;;5053608;28;20039;-72
2022/07/26 03:33:29;;;;;;;1.80;0.43;;;;;;;;;;5051960;28;19913;-73
2022/07/26 03:35:54;;;;;;;0.50;0.45;;;;;;;;;;5052809;28;20029;-73
2022/07/26 03:38:22;;;;;;;1.48;0.52;;;;;;;;;;5052520;28;20094;-73
2022/07/26 03:40:47;;;;;;;1.45;0.82;;;;;;;;;;5052984;28;20105;-73
2022/07/26 03:43:12;;;;;;;1.40;0.95;;;;;;;;;;5053568;28;20104;-73
2022/07/26 03:45:38;;;;;;;2.85;0.70;;;;;;;;;;5053364;28;20044;-73
2022/07/26 03:48:03;;;;;;;0.73;0.57;;;;;;;;;;5051977;28;20033;-73
2022/07/26 03:50:31;;;;;;;0.45;0.40;;;;;;;;;;5048776;28;20163;-73
2022/07/26 03:53:01;;;;;;;0.20;0.20;;;;;;;;;;5052092;28;20331;-73
2022/07/26 03:58:13;;;;;;;1.02;0.90;;;;;;;;;;5046588;28;20040;-72
2022/07/26 04:00:43;;;;;;;0.38;0.20;;;;;;;;;;5053214;28;20134;-73
2022/07/26 04:03:11;;;;;;;2.95;1.00;;;;;;;;;;5048793;28;20434;-73
2022/07/26 04:05:41;;;;;;;0.60;0.60;;;;;;;;;;5043852;28;20034;-73
2022/07/26 04:08:06;;;;;;;1.10;0.68;;;;;;;;;;5050844;28;20041;-71
2022/07/26 04:10:34;;;;;;;1.38;0.65;;;;;;;;;;5050748;28;20458;-73
2022/07/26 04:12:59;;;;;;;0.28;0.28;;;;;;;;;;5051949;28;20037;-73
2022/07/26 04:15:25;;;;;;;2.10;0.50;;;;;;;;;;5047661;28;20033;-72
2022/07/26 04:17:52;;;;;;;4.22;0.32;;;;;;;;;;5053409;28;20103;-72
2022/07/26 04:20:17;;;;;;;0.20;0.20;;;;;;;;;;5053258;28;20337;-72
2022/07/26 04:22:47;;;;;;;0.90;0.85;;;;;;;;;;5054324;28;20109;-72
2022/07/26 04:25:13;;;;;;;1.35;0.80;;;;;;;;;;5051747;28;20028;-73
2022/07/26 04:27:38;;;;;;;1.15;1.05;;;;;;;;;;5053652;28;20522;-75
2022/07/26 04:30:08;;;;;;;1.27;0.75;;;;;;;;;;5056930;28;20040;-76
2022/07/26 04:32:33;;;;;;;0.98;0.30;;;;;;;;;;5057020;28;20047;-75
2022/07/26 04:35:01;;;;;;;0.68;0.47;;;;;;;;;;5057555;28;20104;-75
2022/07/26 04:37:26;;;;;;;3.92;0.73;;;;;;;;;;5065711;28;20029;-74
2022/07/26 04:40:07;;;;;;;1.30;0.55;;;;;;;;;;5012235;28;20083;-75
2022/07/26 04:42:35;;;;;;;1.05;0.50;;;;;;;;;;5055674;28;20021;-75
2022/07/26 04:45:01;;;;;;;0.22;0.22;;;;;;;;;;5056065;28;20025;-75
2022/07/26 04:47:26;;;;;;;0.65;0.65;;;;;;;;;;5057235;28;20021;-75
2022/07/26 04:49:52;;;;;;;0.73;0.40;;;;;;;;;;5056238;28;20087;-76
2022/07/26 04:52:20;;;;;;;1.63;0.32;;;;;;;;;;5054916;28;20028;-76
2022/07/26 04:54:45;;;;;;;0.40;0.30;;;;;;;;;;5057119;28;20036;-75
2022/07/26 04:57:15;;;;;;;5.82;1.17;;;;;;;;;;5056318;28;20029;-75
2022/07/26 04:59:42;;;;;;;3.40;0.70;;;;;;;;;;5056347;28;20654;-75
2022/07/26 05:02:08;;;;;;;1.02;0.65;;;;;;;;;;5055915;28;20029;-75
2022/07/26 05:04:33;;;;;;;3.08;0.70;;;;;;;;;;5055245;28;20029;-76
2022/07/26 05:07:03;;;;;;;0.38;0.32;;;;;;;;;;5054390;28;20025;-75
2022/07/26 05:09:29;;;;;;;0.60;0.50;;;;;;;;;;5055572;28;20033;-75
2022/07/26 05:11:54;;;;;;;1.90;1.23;;;;;;;;;;5055575;28;20021;-75
2022/07/26 05:14:21;;;;;;;0.60;0.60;;;;;;;;;;5054792;28;20039;-76
2022/07/26 05:16:47;;;;;;;1.00;0.80;;;;;;;;;;5056097;28;20027;-75
2022/07/26 05:19:13;;;;;;;1.02;0.40;;;;;;;;;;5056468;28;20029;-74
2022/07/26 05:21:38;;;;;;;3.00;0.80;;;;;;;;;;5055412;28;20017;-74
2022/07/26 05:24:07;;;;;;;0.60;0.50;;;;;;;;;;5054159;28;20087;-74
2022/07/26 05:26:35;;;;;;;0.85;0.60;;;;;;;;;;5053804;28;20039;-74
2022/07/26 05:29:00;;;;;;;1.13;0.77;;;;;;;;;;5049321;28;20108;-74
2022/07/26 05:31:28;;;;;;;2.58;0.98;;;;;;;;;;5046006;28;20044;-73
2022/07/26 05:33:54;;;;;;;1.67;1.58;;;;;;;;;;5042453;28;20029;-74
2022/07/26 05:36:24;;;;;;;0.88;0.47;;;;;;;;;;5053289;28;20412;-73
2022/07/26 05:38:49;;;;;;;0.85;0.75;;;;;;;;;;5055795;28;20029;-72
2022/07/26 05:41:15;;;;;;;2.58;0.98;;;;;;;;;;5052171;28;20040;-73
2022/07/26 05:43:42;;;;;;;1.40;0.77;;;;;;;;;;5053741;28;20029;-73
2022/07/26 05:46:10;;;;;;;3.13;0.57;;;;;;;;;;5055357;28;20323;-73
2022/07/26 05:48:35;;;;;;;1.35;0.60;;;;;;;;;;5054204;28;20025;-73
2022/07/26 05:51:01;;;;;;;2.47;0.40;;;;;;;;;;5053605;28;20029;-73
2022/07/26 05:53:28;;;;;;;0.93;0.93;;;;;;;;;;5054647;28;20106;-74
2022/07/26 05:55:56;;;;;;;0.50;0.50;;;;;;;;;;5054659;28;20021;-73
2022/07/26 05:58:26;;;;;;;0.68;0.57;;;;;;;;;;5054213;28;20052;-73
2022/07/26 06:00:53;;;;;;;0.60;0.60;;;;;;;;;;5063224;28;20029;-73
2022/07/26 06:03:21;;;;;;;0.82;0.50;;;;;;;;;;5055203;28;20025;-73
2022/07/26 06:05:55;;;;;;;1.02;0.60;;;;;;;;;;5054139;28;20472;-73
2022/07/26 06:08:26;;;;;;;4.22;0.90;;;;;;;;;;5048160;28;20453;-73
2022/07/26 06:10:54;;;;;;;4.10;0.82;;;;;;;;;;5053413;28;20048;-73
2022/07/26 06:13:20;;;;;;;3.78;1.05;;;;;;;;;;5055006;28;20430;-73
2022/07/26 06:15:48;;;;;;;1.50;0.80;;;;;;;;;;5046008;28;20041;-73
2022/07/26 06:18:13;;;;;;;0.85;0.85;;;;;;;;;;5053265;28;20040;-72
2022/07/26 06:20:42;;;;;;;2.97;0.60;;;;;;;;;;5048293;28;20025;-73
2022/07/26 06:23:08;;;;;;;0.70;0.70;;;;;;;;;;5050744;28;20475;-73
2022/07/26 06:25:33;;;;;;;0.85;0.70;;;;;;;;;;5050885;28;20029;-73
2022/07/26 06:28:02;;;;;;;1.20;0.50;;;;;;;;;;5049031;28;20032;-73
2022/07/26 06:30:28;;;;;;;3.45;1.00;;;;;;;;;;5052581;28;20029;-72
2022/07/26 06:32:56;;;;;;;2.55;0.73;;;;;;;;;;5055565;28;20028;-72
2022/07/26 06:35:22;;;;;;;8.57;2.05;;;;;;;;;;5051429;28;20033;-72
2022/07/26 06:37:50;;;;;;;5.88;1.20;;;;;;;;;;5053130;28;20087;-72
2022/07/26 06:40:16;;;;;;;0.75;0.75;;;;;;;;;;5052837;28;20099;-72
2022/07/26 06:42:43;;;;;;;4.03;1.08;;;;;;;;;;5053737;28;20100;-72
2022/07/26 06:45:09;;;;;;;2.28;1.27;;;;;;;;;;5049986;28;20068;-73
2022/07/26 06:47:37;;;;;;;1.58;1.08;;;;;;;;;;5032782;28;20570;-73
2022/07/26 06:50:03;;;;;;;3.25;0.88;;;;;;;;;;5048813;28;20358;-73
2022/07/26 06:52:31;;;;;;;1.58;0.85;;;;;;;;;;5052408;28;20094;-73
2022/07/26 06:54:59;;;;;;;3.90;1.30;;;;;;;;;;5050614;28;20127;-72
2022/07/26 06:57:25;;;;;;;3.58;1.05;;;;;;;;;;5057476;28;20035;-73
2022/07/26 06:59:53;;;;;;;1.00;0.95;;;;;;;;;;5058528;28;20362;-73
2022/07/26 07:02:31;;;;;;;7.82;2.10;;;;;;;;;;5050318;28;20027;-74
2022/07/26 07:04:56;;;;;;;1.17;0.73;;;;;;;;;;5045485;28;20031;-73
2022/07/26 07:07:22;;;;;;;1.83;1.55;;;;;;;;;;5053381;28;20016;-73
2022/07/26 07:09:50;;;;;;;0.55;0.55;;;;;;;;;;5051952;28;20349;-74
2022/07/26 07:12:15;;;;;;;1.55;1.15;;;;;;;;;;5050170;28;20029;-76
2022/07/26 07:14:40;;;;;;;0.95;0.95;;;;;;;;;;5050639;28;20111;-74
2022/07/26 07:17:07;;;;;;;3.17;0.80;;;;;;;;;;5050325;28;20036;-75
2022/07/26 07:19:36;;;;;;;7.38;1.67;;;;;;;;;;5049748;28;20140;-78
2022/07/26 07:22:05;;;;;;;1.35;1.25;;;;;;;;;;5034580;28;20090;-74
2022/07/26 07:24:30;;;;;;;3.58;1.50;;;;;;;;;;5046037;28;20357;-75
2022/07/26 07:27:01;;;;;;;2.08;1.48;;;;;;;;;;5053005;28;20025;-75
2022/07/26 07:29:26;;;;;;;4.72;2.95;;;;;;;;;;5057094;28;20089;-75
2022/07/26 07:31:52;;;;;;;3.95;2.13;;;;;;;;;;5053876;28;20032;-75
2022/07/26 07:34:21;;;;;;;3.67;1.95;;;;;;;;;;5053474;28;20059;-74
2022/07/26 07:36:48;;;;;;;6.97;1.73;;;;;;;;;;5052980;28;20098;-74
2022/07/26 07:39:18;;;;;;;1.77;1.67;;;;;;;;;;5054112;28;20025;-74
2022/07/26 07:41:47;;;;;;;4.18;2.13;;;;;;;;;;5053003;28;20067;-75
2022/07/26 07:44:12;;;;;;;1.65;1.55;;;;;;;;;;5054149;28;20066;-75
2022/07/26 07:46:38;;;;;;;1.52;0.98;;;;;;;;;;5052977;28;20037;-75
2022/07/26 07:49:04;;;;;;;1.40;1.20;;;;;;;;;;5053764;28;20308;-74
2022/07/26 07:51:29;;;;;;;1.20;1.00;;;;;;;;;;5053385;28;20167;-75
2022/07/26 07:53:54;;;;;;;2.50;1.52;;;;;;;;;;5053875;28;20448;-75
2022/07/26 07:56:20;;;;;;;3.72;1.92;;;;;;;;;;5055035;28;20028;-75
2022/07/26 07:58:50;;;;;;;2.10;1.35;;;;;;;;;;5059202;28;20040;-75
2022/07/26 08:01:15;;;;;;;2.40;1.10;;;;;;;;;;5051313;28;20119;-74
2022/07/26 08:03:47;;;;;;;2.33;1.20;;;;;;;;;;5057690;28;20032;-75
2022/07/26 08:06:13;;;;;;;2.08;1.13;;;;;;;;;;5057018;28;20029;-75
2022/07/26 08:08:38;;;;;;;0.98;0.88;;;;;;;;;;5057496;28;20039;-75
2022/07/26 08:11:04;;;;;;;2.95;1.48;;;;;;;;;;5057444;28;20029;-75
2022/07/26 08:13:29;;;;;;;0.70;0.70;;;;;;;;;;5057500;28;20051;-73
2022/07/26 08:15:55;;;;;;;2.70;1.58;;;;;;;;;;5056152;28;20025;-76
2022/07/26 08:18:22;;;;;;;4.68;1.48;;;;;;;;;;5056439;28;20028;-75
2022/07/26 08:20:47;;;;;;;1.67;1.30;;;;;;;;;;5056077;28;20017;-75
2022/07/26 08:23:12;;;;;;;1.15;1.05;;;;;;;;;;5057172;28;20492;-75
2022/07/26 08:25:40;;;;;;;1.77;1.15;;;;;;;;;;5057374;28;20040;-75
2022/07/26 08:28:08;;;;;;;1.88;1.10;;;;;;;;;;5057511;28;20454;-74
2022/07/26 08:30:33;;;;;;;1.48;1.02;;;;;;;;;;5060861;28;20502;-75
2022/07/26 08:32:59;;;;;;;3.83;1.70;;;;;;;;;;5056471;28;20108;-75
2022/07/26 08:35:25;;;;;;;0.77;0.77;;;;;;;;;;5056046;28;20469;-74
2022/07/26 08:37:52;;;;;;;1.00;0.80;;;;;;;;;;5056819;28;20116;-75
2022/07/26 08:40:20;;;;;;;1.13;1.02;;;;;;;;;;5056727;28;20280;-75
2022/07/26 08:42:50;;;;;;;0.95;0.80;;;;;;;;;;5056982;28;20024;-75
2022/07/26 08:45:26;;;;;;;1.77;1.65;;;;;;;;;;5057010;28;20021;-74
2022/07/26 08:47:52;;;;;;;1.60;1.10;;;;;;;;;;5056664;28;20351;-75
2022/07/26 08:50:20;;;;;;;4.22;2.03;;;;;;;;;;5056163;28;20528;-75
2022/07/26 08:52:46;;;;;;;1.50;1.33;;;;;;;;;;5056027;28;20056;-76
2022/07/26 08:55:17;;;;;;;7.07;2.50;;;;;;;;;;5056565;28;20121;-75
2022/07/26 08:57:45;;;;;;;2.00;1.80;;;;;;;;;;5055816;28;20158;-74
2022/07/26 09:00:18;;;;;;;1.33;1.23;;;;;;;;;;5056022;28;20180;-75
2022/07/26 09:02:44;;;;;;;2.40;1.70;;;;;;;;;;5055425;28;20029;-74
2022/07/26 09:05:10;;;;;;;4.28;1.80;;;;;;;;;;5055374;28;20039;-75
2022/07/26 09:07:38;;;;;;;1.60;1.20;;;;;;;;;;5055379;28;20096;-83
2022/07/26 09:10:08;;;;;;;1.95;1.13;;;;;;;;;;5039347;28;20088;-83
2022/07/26 09:13:11;;;;;;;3.38;1.77;;;;;;;;;;5039621;28;20025;-84
2022/07/26 09:15:36;;;;;;;1.65;1.27;;;;;;;;;;5058132;28;20025;-84
2022/07/26 09:18:04;;;;;;;0.70;0.70;;;;;;;;;;5056621;28;20029;-84
2022/07/26 09:20:31;;;;;;;1.35;0.65;;;;;;;;;;5039568;28;20028;-84
2022/07/26 09:23:01;;;;;;;1.85;0.80;;;;;;;;;;5056699;28;20032;-85
2022/07/26 09:25:31;;;;;;;1.23;0.75;;;;;;;;;;5055581;28;20032;-85
2022/07/26 09:27:58;;;;;;;1.00;0.55;;;;;;;;;;5038975;28;20051;-86
2022/07/26 09:30:24;;;;;;;0.50;0.50;;;;;;;;;;5057564;28;20032;-86
2022/07/26 09:33:03;;;;;;;0.63;0.57;;;;;;;;;;5055472;28;20025;-85
2022/07/26 09:35:31;;;;;;;1.08;0.68;;;;;;;;;;5056098;28;20358;-84
2022/07/26 09:37:56;;;;;;;0.70;0.70;;;;;;;;;;5040365;28;20028;-87
2022/07/26 09:40:31;;;;;;;1.05;0.98;;;;;;;;;;5056360;28;20430;-84
2022/07/26 09:42:59;;;;;;;1.35;1.25;;;;;;;;;;5056292;28;20057;-88
2022/07/26 09:45:28;;;;;;;2.08;0.88;;;;;;;;;;5055745;28;20039;-87
2022/07/26 09:47:58;;;;;;;2.63;1.08;;;;;;;;;;5055860;28;20025;-87
2022/07/26 09:50:26;;;;;;;5.88;1.15;;;;;;;;;;5055386;28;20112;-87
2022/07/26 09:56:17;;;;;;;1.05;0.93;;;;;;;;;;5034170;28;20056;-85
2022/07/26 09:58:43;;;;;;;4.07;1.08;;;;;;;;;;5039152;28;20020;-87
2022/07/26 10:01:09;;;;;;;9.52;1.67;;;;;;;;;;5060207;28;20021;-85
2022/07/26 10:03:34;;;;;;;0.98;0.82;;;;;;;;;;5056224;28;20438;-86
2022/07/26 10:06:01;;;;;;;1.08;1.00;;;;;;;;;;5038275;28;20098;-86
2022/07/26 10:08:27;;;;;;;0.57;0.57;;;;;;;;;;5055308;28;20051;-86
2022/07/26 10:11:05;;;;;;;0.90;0.75;;;;;;;;;;5046508;28;20553;-92
2022/07/26 10:13:30;;;;;;;1.05;0.90;;;;;;;;;;5057783;28;20096;-87
2022/07/26 10:16:00;;;;;;;1.60;1.40;;;;;;;;;;5054275;28;20127;-88
2022/07/26 10:18:35;;;;;;;1.30;1.20;;;;;;;;;;5059014;28;20361;-87
2022/07/26 10:21:34;;;;;;;1.65;1.38;;;;;;;;;;5068666;28;20029;-82
2022/07/26 10:24:01;;;;;;;1.40;1.30;;;;;;;;;;5047850;28;20453;-87
2022/07/26 10:26:35;;;;;;;1.27;1.17;;;;;;;;;;5066651;28;20028;-85
2022/07/26 10:29:17;;;;;;;0.77;0.77;;;;;;;;;;5055140;28;20029;-84
2022/07/26 10:31:45;;;;;;;1.70;1.30;;;;;;;;;;5051249;28;20395;-80
2022/07/26 10:34:33;;;;;;;1.70;1.50;;;;;;;;;;5051930;28;20033;-77
2022/07/26 10:37:18;;;;;;;1.95;1.08;;;;;;;;;;5051413;28;20418;-80
2022/07/26 10:39:43;;;;;;;0.93;0.68;;;;;;;;;;5034102;28;20045;-80
2022/07/26 10:42:09;;;;;;;0.40;0.40;;;;;;;;;;5036193;28;20454;-84
2022/07/26 10:47:22;;;;;;;0.28;0.28;;;;;;;;;;5056066;28;20040;-82
2022/07/26 10:49:55;;;;;;;0.93;0.70;;;;;;;;;;5055632;28;20028;-81
2022/07/26 10:52:27;;;;;;;0.52;0.52;;;;;;;;;;5049297;28;20032;-83
2022/07/26 10:54:58;;;;;;;;;;;;;;;;;;5039230;28;20434;-84
2022/07/26 10:57:28;;;;;;;0.52;0.52;;;;;;;;;;5054462;28;20218;-83
2022/07/26 10:59:57;;;;;;;0.52;0.52;;;;;;;;;;5039513;28;20025;-81
2022/07/26 11:02:31;;;;;;;0.68;0.60;;;;;;;;;;5037653;28;20056;-83
2022/07/26 11:05:00;;;;;;;0.70;0.32;;;;;;;;;;5038039;28;20355;-85
2022/07/26 11:07:26;;;;;;;0.50;0.50;;;;;;;;;;5037661;28;20097;-84
2022/07/26 11:09:55;;;;;;;1.05;0.50;;;;;;;;;;5038993;28;20025;-85
2022/07/26 11:12:21;;;;;;;0.60;0.35;;;;;;;;;;5054897;28;20327;-85
2022/07/26 11:14:49;;;;;;;0.88;0.63;;;;;;;;;;5038236;28;20025;-86
2022/07/26 11:17:36;;;;;;;0.73;0.70;;;;;;;;;;5055400;28;20028;-85
2022/07/26 11:20:03;;;;;;;0.65;0.60;;;;;;;;;;5034774;28;20051;-86
2022/07/26 11:22:35;;;;;;;0.75;0.70;;;;;;;;;;5052598;28;20110;-84
2022/07/26 11:25:10;;;;;;;0.25;0.25;;;;;;;;;;5055298;28;20041;-86
2022/07/26 11:27:37;;;;;;;0.30;0.20;;;;;;;;;;5056209;28;20021;-85
2022/07/26 11:30:04;;;;;;;0.40;0.40;;;;;;;;;;5042254;28;20558;-85
2022/07/26 11:32:29;;;;;;;0.20;0.20;;;;;;;;;;5038997;28;20036;-84
2022/07/26 11:35:05;;;;;;;0.43;0.32;;;;;;;;;;5056727;28;20351;-83
2022/07/26 11:37:33;;;;;;;0.22;0.22;;;;;;;;;;5039073;28;20361;-85
2022/07/26 11:39:59;;;;;;;0.93;0.73;;;;;;;;;;5036408;28;20028;-86
2022/07/26 11:42:26;;;;;;;0.52;0.52;;;;;;;;;;5030702;28;20427;-84
2022/07/26 11:44:54;;;;;;;1.02;0.70;;;;;;;;;;5037183;28;20039;-84
2022/07/26 11:47:24;;;;;;;0.30;0.30;;;;;;;;;;5048736;28;20397;-84
2022/07/26 11:49:49;;;;;;;0.32;0.32;;;;;;;;;;5036413;28;20028;-85
2022/07/26 11:52:42;;;;;;;0.47;0.47;;;;;;;;;;5052894;28;20039;-84
2022/07/26 11:55:08;;;;;;;2.35;0.50;;;;;;;;;;5039577;28;20071;-85
2022/07/26 11:57:38;;;;;;;0.20;0.20;;;;;;;;;;5052345;28;20392;-85
2022/07/26 12:00:04;;;;;;;0.15;0.15;;;;;;;;;;5059324;28;20106;-84
2022/07/26 12:02:29;;;;;;;0.32;0.32;;;;;;;;;;5044437;28;20496;-85
2022/07/26 12:05:18;;;;;;;0.20;0.20;;;;;;;;;;5033956;28;20028;-86
2022/07/26 12:07:58;;;;;;;0.20;0.20;;;;;;;;;;5036362;28;20025;-84
2022/07/26 12:10:24;;;;;;;0.90;0.20;;;;;;;;;;5037779;28;20025;-85
2022/07/26 12:13:08;;;;;;;0.28;0.22;;;;;;;;;;5033778;28;20040;-86
2022/07/26 12:15:51;;;;;;;0.32;0.20;;;;;;;;;;5036330;28;20519;-84
2022/07/26 12:18:26;;;;;;;0.38;0.38;;;;;;;;;;5051462;28;20350;-85
2022/07/26 12:21:00;;;;;;;0.10;0.10;;;;;;;;;;5035012;28;20064;-85
2022/07/26 12:23:25;;;;;;;0.13;0.10;;;;;;;;;;5036661;28;20489;-84
2022/07/26 12:25:53;;;;;;;1.13;0.10;;;;;;;;;;5036821;28;20037;-85
2022/07/26 12:28:38;;;;;;;0.17;0.17;;;;;;;;;;5047334;28;20056;-86
2022/07/26 12:31:04;;;;;;;0.10;0.10;;;;;;;;;;5036763;28;20124;-87
2022/07/26 12:33:29;;;;;;;0.10;0.10;;;;;;;;;;5033388;28;20096;-85
2022/07/26 12:36:00;;;;;;;0.20;0.10;;;;;;;;;;5042699;28;20028;-87
2022/07/26 12:38:39;;;;;;;0.20;0.20;;;;;;;;;;5036642;28;20423;-89
2022/07/26 12:41:04;;;;;;;0.40;0.40;;;;;;;;;;5034577;28;20033;-87
2022/07/26 12:43:38;;;;;;;0.10;0.10;;;;;;;;;;5049315;28;20040;-86
2022/07/26 12:46:04;;;;;;;1.20;0.35;;;;;;;;;;5036969;28;20043;-85
2022/07/26 12:48:31;;;;;;;0.17;0.17;;;;;;;;;;5053447;28;20115;-87
2022/07/26 12:50:57;;;;;;;0.90;0.75;;;;;;;;;;5055572;28;20037;-88
2022/07/26 12:53:25;;;;;;;0.30;0.30;;;;;;;;;;5038827;28;20500;-87
2022/07/26 12:55:59;;;;;;;0.20;0.20;;;;;;;;;;5051114;28;20414;-85
2022/07/26 12:58:26;;;;;;;0.47;0.30;;;;;;;;;;5072369;28;20108;-84
2022/07/26 13:00:51;;;;;;;0.20;0.20;;;;;;;;;;5060947;28;20053;-87
2022/07/26 13:03:18;;;;;;;0.20;0.20;;;;;;;;;;5038260;28;20052;-80
2022/07/26 13:05:43;;;;;;;0.20;0.20;;;;;;;;;;5054117;28;20032;-84
2022/07/26 13:08:08;;;;;;;0.55;0.47;;;;;;;;;;5053284;28;20029;-87
2022/07/26 13:10:34;;;;;;;0.20;0.15;;;;;;;;;;5050809;28;20804;-83
2022/07/26 13:13:03;;;;;;;0.38;0.20;;;;;;;;;;5054422;28;20401;-84
2022/07/26 13:15:28;;;;;;;0.10;0.10;;;;;;;;;;5049458;28;20074;-85
2022/07/26 13:17:58;;;;;;;0.32;0.25;;;;;;;;;;5051491;28;20021;-83
2022/07/26 13:20:26;;;;;;;0.30;0.30;;;;;;;;;;5050028;28;20033;-83
2022/07/26 13:22:53;;;;;;;0.10;0.10;;;;;;;;;;5057930;28;20090;-82
2022/07/26 13:25:21;;;;;;;0.10;0.10;;;;;;;;;;5056448;28;20430;-82
2022/07/26 13:27:47;;;;;;;0.30;0.20;;;;;;;;;;5056030;28;20037;-82
2022/07/26 13:30:14;;;;;;;0.20;0.20;;;;;;;;;;5063088;28;20108;-83
2022/07/26 13:32:42;;;;;;;0.38;0.38;;;;;;;;;;5054937;28;20051;-84
2022/07/26 13:35:08;;;;;;;0.30;0.30;;;;;;;;;;5051909;28;20025;-85
2022/07/26 13:37:34;;;;;;;0.10;0.10;;;;;;;;;;5039669;28;20316;-87
2022/07/26 13:39:59;;;;;;;0.25;0.25;;;;;;;;;;5035237;28;20049;-88
2022/07/26 13:42:25;;;;;;;0.10;0.10;;;;;;;;;;5035675;28;20029;-85
2022/07/26 13:44:50;;;;;;;4.38;1.05;;;;;;;;;;5038303;28;20084;-87
2022/07/26 13:47:15;;;;;;;0.10;0.10;;;;;;;;;;5035124;28;20033;-85
2022/07/26 13:49:41;;;;;;;0.70;0.50;;;;;;;;;;5038299;28;20031;-87
2022/07/26 13:52:06;;;;;;;0.10;0.10;;;;;;;;;;5038604;28;20036;-86
2022/07/26 13:54:37;;;;;;;0.10;0.10;;;;;;;;;;5054375;28;20112;-85
2022/07/26 13:57:06;;;;;;;0.15;0.15;;;;;;;;;;5038871;28;20374;-86
2022/07/26 13:59:32;;;;;;;0.20;0.20;;;;;;;;;;5058184;28;20032;-85
2022/07/26 14:02:00;;;;;;;0.25;0.25;;;;;;;;;;5034140;28;20094;-85
2022/07/26 14:04:26;;;;;;;1.10;0.40;;;;;;;;;;5023544;28;20033;-86
2022/07/26 14:06:52;;;;;;;1.48;1.17;;;;;;;;;;5054739;28;20037;-87
2022/07/26 14:09:19;;;;;;;2.47;1.60;;;;;;;;;;5038384;28;20025;-86
2022/07/26 14:11:48;;;;;;;0.80;0.52;;;;;;;;;;5055150;28;20024;-86
2022/07/26 14:14:13;;;;;;;2.05;1.85;;;;;;;;;;5036580;28;20438;-88
2022/07/26 14:16:44;;;;;;;1.23;0.63;;;;;;;;;;5037258;28;20105;-84
2022/07/26 14:19:09;;;;;;;0.10;0.10;;;;;;;;;;5051999;28;20457;-83
2022/07/26 14:21:36;;;;;;;0.28;0.28;;;;;;;;;;5037710;28;20059;-84
2022/07/26 14:24:04;;;;;;;0.20;0.20;;;;;;;;;;5036331;28;20040;-84
2022/07/26 14:26:32;;;;;;;0.43;0.43;;;;;;;;;;5040432;28;20083;-83
2022/07/26 14:29:00;;;;;;;0.10;0.10;;;;;;;;;;5036683;28;20039;-85
2022/07/26 14:31:25;;;;;;;0.20;0.20;;;;;;;;;;5036957;28;20032;-84
2022/07/26 14:34:00;;;;;;;0.65;0.47;;;;;;;;;;5030842;28;20026;-84
2022/07/26 14:36:25;;;;;;;0.20;0.10;;;;;;;;;;5034304;28;20025;-85
2022/07/26 14:38:51;;;;;;;0.10;0.10;;;;;;;;;;5029845;28;20052;-86
2022/07/26 14:41:16;;;;;;;0.20;0.20;;;;;;;;;;5033936;28;20458;-85
2022/07/26 14:43:44;;;;;;;0.10;0.10;;;;;;;;;;5037178;28;20032;-85
2022/07/26 14:46:09;;;;;;;0.10;0.10;;;;;;;;;;5037805;28;20496;-85
2022/07/26 14:48:37;;;;;;;0.22;0.20;;;;;;;;;;5033719;28;20079;-85
2022/07/26 14:51:03;;;;;;;0.20;0.20;;;;;;;;;;5038271;28;20033;-85
2022/07/26 14:53:31;;;;;;;0.20;0.20;;;;;;;;;;5054914;28;20120;-86
2022/07/26 14:55:56;;;;;;;0.20;0.20;;;;;;;;;;5052866;28;20020;-84
2022/07/26 14:58:22;;;;;;;2.03;0.20;;;;;;;;;;5036209;28;20039;-86